sensor_id;sensor_type;location;lat;lon;timestamp;P1;durP1;ratioP1;P2;durP2;ratioP2
62616;SDS011;62539;51.190;6.808;2023-02-01T00:01:55;12.88;;;6.07;;
62616;SDS011;62539;51.190;6.808;2023-02-01T00:04:21;16.15;;;6.25;;
62616;SDS011;62539;51.190;6.808;2023-02-01T00:06:47;14.85;;;6.13;;
62616;SDS011;62539;51.190;6.808;2023-02-01T00:09:12;9.07;;;5.75;;
62616;SDS011;62539;51.190;6.808;2023-02-01T00:11:38;11.52;;;6.35;;
62616;SDS011;62539;51.190;6.808;2023-02-01T00:14:04;13.30;;;5.20;;
62616;SDS011;62539;51.190;6.808;2023-02-01T00:16:30;11.60;;;6.30;;
62616;SDS011;62539;51.190;6.808;2023-02-01T00:18:58;10.40;;;5.80;;
62616;SDS011;62539;51.190;6.808;2023-02-01T00:21:32;11.77;;;5.80;;
62616;SDS011;62539;51.190;6.808;2023-02-01T00:23:58;10.55;;;5.82;;
62616;SDS011;62539;51.190;6.808;2023-02-01T00:26:30;15.40;;;6.40;;
62616;SDS011;62539;51.190;6.808;2023-02-01T00:28:57;10.18;;;6.28;;
62616;SDS011;62539;51.190;6.808;2023-02-01T00:31:23;14.45;;;5.88;;
62616;SDS011;62539;51.190;6.808;2023-02-01T00:33:48;13.63;;;6.47;;
62616;SDS011;62539;51.190;6.808;2023-02-01T00:36:14;11.88;;;5.93;;
62616;SDS011;62539;51.190;6.808;2023-02-01T00:38:40;10.50;;;6.53;;
62616;SDS011;62539;51.190;6.808;2023-02-01T00:43:40;12.52;;;5.80;;
62616;SDS011;62539;51.190;6.808;2023-02-01T00:46:07;11.95;;;5.55;;
62616;SDS011;62539;51.190;6.808;2023-02-01T00:48:33;12.05;;;5.53;;
62616;SDS011;62539;51.190;6.808;2023-02-01T00:51:02;11.60;;;5.55;;
62616;SDS011;62539;51.190;6.808;2023-02-01T00:53:31;9.20;;;4.85;;
62616;SDS011;62539;51.190;6.808;2023-02-01T00:55:57;11.05;;;5.95;;
62616;SDS011;62539;51.190;6.808;2023-02-01T00:58:24;14.82;;;5.57;;
62616;SDS011;62539;51.190;6.808;2023-02-01T01:00:59;8.40;;;5.35;;
62616;SDS011;62539;51.190;6.808;2023-02-01T01:03:35;10.27;;;5.32;;
62616;SDS011;62539;51.190;6.808;2023-02-01T01:06:05;11.77;;;4.90;;
62616;SDS011;62539;51.190;6.808;2023-02-01T01:08:37;11.13;;;5.07;;
62616;SDS011;62539;51.190;6.808;2023-02-01T01:11:26;10.50;;;5.70;;
62616;SDS011;62539;51.190;6.808;2023-02-01T01:13:53;9.40;;;5.00;;
62616;SDS011;62539;51.190;6.808;2023-02-01T01:16:21;9.43;;;5.55;;
62616;SDS011;62539;51.190;6.808;2023-02-01T01:18:50;8.25;;;5.00;;
62616;SDS011;62539;51.190;6.808;2023-02-01T01:21:16;9.02;;;5.25;;
62616;SDS011;62539;51.190;6.808;2023-02-01T01:23:43;8.98;;;5.35;;
62616;SDS011;62539;51.190;6.808;2023-02-01T01:26:15;11.65;;;6.15;;
62616;SDS011;62539;51.190;6.808;2023-02-01T01:28:45;11.52;;;5.55;;
62616;SDS011;62539;51.190;6.808;2023-02-01T01:31:11;13.00;;;5.15;;
62616;SDS011;62539;51.190;6.808;2023-02-01T01:33:39;9.23;;;4.95;;
62616;SDS011;62539;51.190;6.808;2023-02-01T01:36:06;8.80;;;4.78;;
62616;SDS011;62539;51.190;6.808;2023-02-01T01:38:36;9.35;;;5.07;;
62616;SDS011;62539;51.190;6.808;2023-02-01T01:41:02;8.93;;;5.22;;
62616;SDS011;62539;51.190;6.808;2023-02-01T01:43:47;10.55;;;5.32;;
62616;SDS011;62539;51.190;6.808;2023-02-01T01:46:23;12.00;;;4.97;;
62616;SDS011;62539;51.190;6.808;2023-02-01T01:51:50;9.68;;;5.65;;
62616;SDS011;62539;51.190;6.808;2023-02-01T01:54:45;8.57;;;4.93;;
62616;SDS011;62539;51.190;6.808;2023-02-01T01:59:46;8.50;;;4.40;;
62616;SDS011;62539;51.190;6.808;2023-02-01T02:02:20;10.02;;;5.25;;
62616;SDS011;62539;51.190;6.808;2023-02-01T02:04:45;10.00;;;5.25;;
62616;SDS011;62539;51.190;6.808;2023-02-01T02:07:16;9.50;;;4.65;;
62616;SDS011;62539;51.190;6.808;2023-02-01T02:09:48;7.57;;;4.60;;
62616;SDS011;62539;51.190;6.808;2023-02-01T02:12:13;8.93;;;4.65;;
62616;SDS011;62539;51.190;6.808;2023-02-01T02:14:39;10.93;;;4.85;;
62616;SDS011;62539;51.190;6.808;2023-02-01T02:17:12;9.65;;;4.80;;
62616;SDS011;62539;51.190;6.808;2023-02-01T02:32:47;7.47;;;4.47;;
62616;SDS011;62539;51.190;6.808;2023-02-01T02:35:51;9.23;;;4.50;;
62616;SDS011;62539;51.190;6.808;2023-02-01T02:38:38;9.27;;;4.60;;
62616;SDS011;62539;51.190;6.808;2023-02-01T02:41:27;7.90;;;4.10;;
62616;SDS011;62539;51.190;6.808;2023-02-01T02:44:47;6.68;;;4.20;;
62616;SDS011;62539;51.190;6.808;2023-02-01T02:47:51;7.85;;;4.68;;
62616;SDS011;62539;51.190;6.808;2023-02-01T02:50:59;8.27;;;4.72;;
62616;SDS011;62539;51.190;6.808;2023-02-01T02:54:10;7.50;;;3.90;;
62616;SDS011;62539;51.190;6.808;2023-02-01T02:57:06;8.25;;;4.45;;
62616;SDS011;62539;51.190;6.808;2023-02-01T02:59:55;9.20;;;4.40;;
62616;SDS011;62539;51.190;6.808;2023-02-01T03:02:44;6.78;;;4.20;;
62616;SDS011;62539;51.190;6.808;2023-02-01T03:05:34;6.65;;;4.07;;
62616;SDS011;62539;51.190;6.808;2023-02-01T03:08:12;9.35;;;4.50;;
62616;SDS011;62539;51.190;6.808;2023-02-01T03:16:30;10.27;;;4.45;;
62616;SDS011;62539;51.190;6.808;2023-02-01T03:19:16;7.75;;;4.30;;
62616;SDS011;62539;51.190;6.808;2023-02-01T03:22:12;9.10;;;4.45;;
62616;SDS011;62539;51.190;6.808;2023-02-01T03:24:47;6.97;;;3.83;;
62616;SDS011;62539;51.190;6.808;2023-02-01T03:27:24;7.63;;;4.18;;
62616;SDS011;62539;51.190;6.808;2023-02-01T03:32:48;7.75;;;3.97;;
62616;SDS011;62539;51.190;6.808;2023-02-01T03:35:45;10.80;;;4.32;;
62616;SDS011;62539;51.190;6.808;2023-02-01T03:41:53;9.15;;;4.30;;
62616;SDS011;62539;51.190;6.808;2023-02-01T03:47:19;11.27;;;3.88;;
62616;SDS011;62539;51.190;6.808;2023-02-01T03:49:50;7.88;;;3.83;;
62616;SDS011;62539;51.190;6.808;2023-02-01T03:52:25;9.30;;;3.90;;
62616;SDS011;62539;51.190;6.808;2023-02-01T03:54:57;7.63;;;3.92;;
62616;SDS011;62539;51.190;6.808;2023-02-01T03:57:26;6.55;;;3.90;;
62616;SDS011;62539;51.190;6.808;2023-02-01T04:00:09;10.35;;;3.78;;
62616;SDS011;62539;51.190;6.808;2023-02-01T04:02:46;6.57;;;3.80;;
62616;SDS011;62539;51.190;6.808;2023-02-01T04:05:12;7.07;;;4.40;;
62616;SDS011;62539;51.190;6.808;2023-02-01T04:07:37;6.22;;;3.50;;
62616;SDS011;62539;51.190;6.808;2023-02-01T04:10:03;7.85;;;3.53;;
62616;SDS011;62539;51.190;6.808;2023-02-01T04:12:29;5.93;;;3.50;;
62616;SDS011;62539;51.190;6.808;2023-02-01T04:14:54;8.25;;;3.80;;
62616;SDS011;62539;51.190;6.808;2023-02-01T04:17:20;5.65;;;3.80;;
62616;SDS011;62539;51.190;6.808;2023-02-01T04:19:45;7.35;;;4.07;;
62616;SDS011;62539;51.190;6.808;2023-02-01T04:22:11;5.75;;;3.83;;
62616;SDS011;62539;51.190;6.808;2023-02-01T04:24:37;8.60;;;3.40;;
62616;SDS011;62539;51.190;6.808;2023-02-01T04:27:03;5.97;;;3.55;;
62616;SDS011;62539;51.190;6.808;2023-02-01T04:29:28;7.50;;;3.63;;
62616;SDS011;62539;51.190;6.808;2023-02-01T04:31:54;7.55;;;3.53;;
62616;SDS011;62539;51.190;6.808;2023-02-01T04:34:19;7.47;;;3.47;;
62616;SDS011;62539;51.190;6.808;2023-02-01T04:36:45;6.03;;;3.50;;
62616;SDS011;62539;51.190;6.808;2023-02-01T04:39:10;6.53;;;3.70;;
62616;SDS011;62539;51.190;6.808;2023-02-01T04:41:36;5.65;;;3.63;;
62616;SDS011;62539;51.190;6.808;2023-02-01T04:44:01;6.10;;;3.75;;
62616;SDS011;62539;51.190;6.808;2023-02-01T04:46:27;9.48;;;3.60;;
62616;SDS011;62539;51.190;6.808;2023-02-01T04:48:52;5.25;;;3.22;;
62616;SDS011;62539;51.190;6.808;2023-02-01T04:51:18;6.47;;;3.20;;
62616;SDS011;62539;51.190;6.808;2023-02-01T04:53:44;8.57;;;3.60;;
62616;SDS011;62539;51.190;6.808;2023-02-01T04:56:10;6.47;;;3.13;;
62616;SDS011;62539;51.190;6.808;2023-02-01T04:58:35;5.30;;;3.28;;
62616;SDS011;62539;51.190;6.808;2023-02-01T05:01:05;8.55;;;3.20;;
62616;SDS011;62539;51.190;6.808;2023-02-01T05:03:32;4.65;;;2.95;;
62616;SDS011;62539;51.190;6.808;2023-02-01T05:05:58;6.60;;;3.35;;
62616;SDS011;62539;51.190;6.808;2023-02-01T05:08:24;5.72;;;3.35;;
62616;SDS011;62539;51.190;6.808;2023-02-01T05:10:50;5.13;;;3.13;;
62616;SDS011;62539;51.190;6.808;2023-02-01T05:13:16;5.53;;;3.20;;
62616;SDS011;62539;51.190;6.808;2023-02-01T05:16:00;5.00;;;2.92;;
62616;SDS011;62539;51.190;6.808;2023-02-01T05:18:26;5.50;;;2.97;;
62616;SDS011;62539;51.190;6.808;2023-02-01T05:20:51;5.07;;;3.22;;
62616;SDS011;62539;51.190;6.808;2023-02-01T05:23:16;4.40;;;2.88;;
62616;SDS011;62539;51.190;6.808;2023-02-01T05:25:42;5.75;;;3.28;;
62616;SDS011;62539;51.190;6.808;2023-02-01T05:28:07;6.47;;;2.95;;
62616;SDS011;62539;51.190;6.808;2023-02-01T05:30:33;5.28;;;3.75;;
62616;SDS011;62539;51.190;6.808;2023-02-01T05:33:00;6.25;;;3.85;;
62616;SDS011;62539;51.190;6.808;2023-02-01T05:35:26;7.38;;;3.95;;
62616;SDS011;62539;51.190;6.808;2023-02-01T05:37:51;7.18;;;4.10;;
62616;SDS011;62539;51.190;6.808;2023-02-01T05:40:17;7.88;;;4.30;;
62616;SDS011;62539;51.190;6.808;2023-02-01T05:42:42;9.82;;;5.13;;
62616;SDS011;62539;51.190;6.808;2023-02-01T05:45:08;14.70;;;6.10;;
62616;SDS011;62539;51.190;6.808;2023-02-01T05:47:34;8.35;;;5.95;;
62616;SDS011;62539;51.190;6.808;2023-02-01T05:49:59;10.15;;;6.53;;
62616;SDS011;62539;51.190;6.808;2023-02-01T05:52:24;10.52;;;7.07;;
62616;SDS011;62539;51.190;6.808;2023-02-01T05:54:50;12.35;;;7.18;;
62616;SDS011;62539;51.190;6.808;2023-02-01T05:57:15;13.93;;;7.78;;
62616;SDS011;62539;51.190;6.808;2023-02-01T05:59:41;12.73;;;6.93;;
62616;SDS011;62539;51.190;6.808;2023-02-01T06:02:09;11.05;;;7.65;;
62616;SDS011;62539;51.190;6.808;2023-02-01T06:04:35;10.27;;;7.55;;
62616;SDS011;62539;51.190;6.808;2023-02-01T06:07:01;11.88;;;8.00;;
62616;SDS011;62539;51.190;6.808;2023-02-01T06:09:27;12.23;;;7.97;;
62616;SDS011;62539;51.190;6.808;2023-02-01T06:11:53;12.45;;;7.82;;
62616;SDS011;62539;51.190;6.808;2023-02-01T06:14:19;18.80;;;8.43;;
62616;SDS011;62539;51.190;6.808;2023-02-01T06:16:44;9.43;;;4.53;;
62616;SDS011;62539;51.190;6.808;2023-02-01T06:19:11;16.13;;;5.60;;
62616;SDS011;62539;51.190;6.808;2023-02-01T06:21:37;23.95;;;8.50;;
62616;SDS011;62539;51.190;6.808;2023-02-01T06:24:02;17.00;;;8.45;;
62616;SDS011;62539;51.190;6.808;2023-02-01T06:26:28;23.35;;;10.25;;
62616;SDS011;62539;51.190;6.808;2023-02-01T06:28:54;18.95;;;9.73;;
62616;SDS011;62539;51.190;6.808;2023-02-01T06:31:21;18.00;;;10.07;;
62616;SDS011;62539;51.190;6.808;2023-02-01T06:33:47;22.13;;;9.82;;
62616;SDS011;62539;51.190;6.808;2023-02-01T06:36:13;26.33;;;10.98;;
62616;SDS011;62539;51.190;6.808;2023-02-01T06:38:40;21.17;;;11.20;;
62616;SDS011;62539;51.190;6.808;2023-02-01T06:41:06;20.30;;;10.18;;
62616;SDS011;62539;51.190;6.808;2023-02-01T06:43:32;27.75;;;11.48;;
62616;SDS011;62539;51.190;6.808;2023-02-01T06:46:02;26.05;;;11.80;;
62616;SDS011;62539;51.190;6.808;2023-02-01T06:48:30;30.98;;;12.70;;
62616;SDS011;62539;51.190;6.808;2023-02-01T06:50:57;23.15;;;12.05;;
62616;SDS011;62539;51.190;6.808;2023-02-01T06:53:22;23.45;;;10.93;;
62616;SDS011;62539;51.190;6.808;2023-02-01T06:55:55;23.40;;;11.40;;
62616;SDS011;62539;51.190;6.808;2023-02-01T06:58:23;20.90;;;11.48;;
62616;SDS011;62539;51.190;6.808;2023-02-01T07:00:52;22.98;;;10.55;;
62616;SDS011;62539;51.190;6.808;2023-02-01T07:03:18;20.77;;;10.77;;
62616;SDS011;62539;51.190;6.808;2023-02-01T07:05:44;25.95;;;10.93;;
62616;SDS011;62539;51.190;6.808;2023-02-01T07:08:10;20.92;;;10.73;;
62616;SDS011;62539;51.190;6.808;2023-02-01T07:10:35;18.63;;;9.73;;
62616;SDS011;62539;51.190;6.808;2023-02-01T07:13:01;19.88;;;10.90;;
62616;SDS011;62539;51.190;6.808;2023-02-01T07:15:27;18.08;;;10.07;;
62616;SDS011;62539;51.190;6.808;2023-02-01T07:17:55;20.60;;;10.40;;
62616;SDS011;62539;51.190;6.808;2023-02-01T07:20:21;17.95;;;9.32;;
62616;SDS011;62539;51.190;6.808;2023-02-01T07:22:47;24.38;;;9.93;;
62616;SDS011;62539;51.190;6.808;2023-02-01T07:25:12;23.10;;;10.35;;
62616;SDS011;62539;51.190;6.808;2023-02-01T07:27:38;21.67;;;9.95;;
62616;SDS011;62539;51.190;6.808;2023-02-01T07:30:04;18.63;;;10.43;;
62616;SDS011;62539;51.190;6.808;2023-02-01T07:32:31;17.35;;;9.55;;
62616;SDS011;62539;51.190;6.808;2023-02-01T07:34:57;18.17;;;9.52;;
62616;SDS011;62539;51.190;6.808;2023-02-01T07:37:23;21.42;;;9.50;;
62616;SDS011;62539;51.190;6.808;2023-02-01T07:39:51;21.40;;;10.13;;
62616;SDS011;62539;51.190;6.808;2023-02-01T07:42:17;18.05;;;8.82;;
62616;SDS011;62539;51.190;6.808;2023-02-01T07:44:43;15.93;;;9.57;;
62616;SDS011;62539;51.190;6.808;2023-02-01T07:47:08;19.90;;;9.75;;
62616;SDS011;62539;51.190;6.808;2023-02-01T07:49:34;16.58;;;9.18;;
62616;SDS011;62539;51.190;6.808;2023-02-01T07:51:59;16.00;;;9.00;;
62616;SDS011;62539;51.190;6.808;2023-02-01T07:54:24;19.88;;;9.40;;
62616;SDS011;62539;51.190;6.808;2023-02-01T07:56:50;17.33;;;8.68;;
62616;SDS011;62539;51.190;6.808;2023-02-01T07:59:15;15.18;;;8.18;;
62616;SDS011;62539;51.190;6.808;2023-02-01T08:01:41;22.23;;;8.82;;
62616;SDS011;62539;51.190;6.808;2023-02-01T08:04:07;13.13;;;8.50;;
62616;SDS011;62539;51.190;6.808;2023-02-01T08:06:36;16.73;;;8.45;;
62616;SDS011;62539;51.190;6.808;2023-02-01T08:09:02;15.38;;;9.93;;
62616;SDS011;62539;51.190;6.808;2023-02-01T08:11:29;25.55;;;10.60;;
62616;SDS011;62539;51.190;6.808;2023-02-01T08:13:56;22.25;;;10.10;;
62616;SDS011;62539;51.190;6.808;2023-02-01T08:16:21;19.67;;;9.52;;
62616;SDS011;62539;51.190;6.808;2023-02-01T08:18:48;21.17;;;10.02;;
62616;SDS011;62539;51.190;6.808;2023-02-01T08:21:16;17.10;;;9.45;;
62616;SDS011;62539;51.190;6.808;2023-02-01T08:23:48;17.85;;;9.40;;
62616;SDS011;62539;51.190;6.808;2023-02-01T08:26:23;17.30;;;9.18;;
62616;SDS011;62539;51.190;6.808;2023-02-01T08:28:55;19.88;;;9.60;;
62616;SDS011;62539;51.190;6.808;2023-02-01T08:31:23;21.85;;;9.85;;
62616;SDS011;62539;51.190;6.808;2023-02-01T08:33:51;18.45;;;9.75;;
62616;SDS011;62539;51.190;6.808;2023-02-01T08:36:20;17.42;;;9.55;;
62616;SDS011;62539;51.190;6.808;2023-02-01T08:38:47;17.88;;;9.38;;
62616;SDS011;62539;51.190;6.808;2023-02-01T08:41:14;19.92;;;9.10;;
62616;SDS011;62539;51.190;6.808;2023-02-01T08:43:43;19.45;;;8.32;;
62616;SDS011;62539;51.190;6.808;2023-02-01T08:46:10;12.93;;;7.63;;
62616;SDS011;62539;51.190;6.808;2023-02-01T08:48:36;18.80;;;8.25;;
62616;SDS011;62539;51.190;6.808;2023-02-01T08:51:04;16.60;;;8.90;;
62616;SDS011;62539;51.190;6.808;2023-02-01T08:53:33;19.52;;;8.68;;
62616;SDS011;62539;51.190;6.808;2023-02-01T08:55:58;14.93;;;8.35;;
62616;SDS011;62539;51.190;6.808;2023-02-01T08:58:24;21.60;;;8.23;;
62616;SDS011;62539;51.190;6.808;2023-02-01T09:00:50;18.48;;;8.00;;
62616;SDS011;62539;51.190;6.808;2023-02-01T09:03:15;16.20;;;8.57;;
62616;SDS011;62539;51.190;6.808;2023-02-01T09:05:42;15.55;;;7.35;;
62616;SDS011;62539;51.190;6.808;2023-02-01T09:08:07;12.55;;;7.80;;
62616;SDS011;62539;51.190;6.808;2023-02-01T09:10:33;15.30;;;7.00;;
62616;SDS011;62539;51.190;6.808;2023-02-01T09:12:59;19.13;;;7.40;;
62616;SDS011;62539;51.190;6.808;2023-02-01T09:15:25;15.32;;;7.93;;
62616;SDS011;62539;51.190;6.808;2023-02-01T09:17:50;14.63;;;7.75;;
62616;SDS011;62539;51.190;6.808;2023-02-01T09:20:16;17.33;;;7.25;;
62616;SDS011;62539;51.190;6.808;2023-02-01T09:22:42;17.45;;;7.63;;
62616;SDS011;62539;51.190;6.808;2023-02-01T09:25:07;15.40;;;7.63;;
62616;SDS011;62539;51.190;6.808;2023-02-01T09:27:34;14.68;;;7.55;;
62616;SDS011;62539;51.190;6.808;2023-02-01T09:30:00;14.90;;;7.28;;
62616;SDS011;62539;51.190;6.808;2023-02-01T09:32:25;15.45;;;7.18;;
62616;SDS011;62539;51.190;6.808;2023-02-01T09:34:51;14.40;;;6.47;;
62616;SDS011;62539;51.190;6.808;2023-02-01T09:37:17;12.93;;;6.93;;
62616;SDS011;62539;51.190;6.808;2023-02-01T09:39:44;16.08;;;6.95;;
62616;SDS011;62539;51.190;6.808;2023-02-01T09:44:56;16.65;;;6.60;;
62616;SDS011;62539;51.190;6.808;2023-02-01T09:47:26;12.68;;;7.00;;
62616;SDS011;62539;51.190;6.808;2023-02-01T09:50:03;13.23;;;6.65;;
62616;SDS011;62539;51.190;6.808;2023-02-01T09:55:45;13.00;;;6.20;;
62616;SDS011;62539;51.190;6.808;2023-02-01T09:58:20;16.02;;;6.28;;
62616;SDS011;62539;51.190;6.808;2023-02-01T10:00:59;11.93;;;6.03;;
62616;SDS011;62539;51.190;6.808;2023-02-01T10:03:28;12.40;;;6.20;;
62616;SDS011;62539;51.190;6.808;2023-02-01T10:08:55;15.85;;;6.05;;
62616;SDS011;62539;51.190;6.808;2023-02-01T10:12:18;17.13;;;5.90;;
62616;SDS011;62539;51.190;6.808;2023-02-01T10:21:05;12.45;;;6.00;;
62616;SDS011;62539;51.190;6.808;2023-02-01T10:26:37;8.75;;;5.40;;
62616;SDS011;62539;51.190;6.808;2023-02-01T10:29:14;19.25;;;5.50;;
62616;SDS011;62539;51.190;6.808;2023-02-01T10:31:44;13.00;;;6.43;;
62616;SDS011;62539;51.190;6.808;2023-02-01T10:34:32;13.50;;;5.53;;
62616;SDS011;62539;51.190;6.808;2023-02-01T10:37:00;13.95;;;6.10;;
62616;SDS011;62539;51.190;6.808;2023-02-01T10:39:52;16.95;;;5.95;;
62616;SDS011;62539;51.190;6.808;2023-02-01T10:42:21;15.00;;;5.53;;
62616;SDS011;62539;51.190;6.808;2023-02-01T10:44:52;17.38;;;5.40;;
62616;SDS011;62539;51.190;6.808;2023-02-01T10:47:22;16.33;;;4.97;;
62616;SDS011;62539;51.190;6.808;2023-02-01T10:52:45;13.02;;;3.72;;
62616;SDS011;62539;51.190;6.808;2023-02-01T10:58:07;14.32;;;3.85;;
62616;SDS011;62539;51.190;6.808;2023-02-01T11:00:58;11.75;;;3.88;;
62616;SDS011;62539;51.190;6.808;2023-02-01T11:03:39;14.32;;;3.90;;
62616;SDS011;62539;51.190;6.808;2023-02-01T11:06:52;13.07;;;3.25;;
62616;SDS011;62539;51.190;6.808;2023-02-01T11:14:57;10.25;;;3.30;;
62616;SDS011;62539;51.190;6.808;2023-02-01T11:20:00;12.10;;;3.13;;
62616;SDS011;62539;51.190;6.808;2023-02-01T11:22:30;13.25;;;2.97;;
62616;SDS011;62539;51.190;6.808;2023-02-01T11:24:56;18.80;;;3.30;;
62616;SDS011;62539;51.190;6.808;2023-02-01T11:27:23;20.23;;;2.97;;
62616;SDS011;62539;51.190;6.808;2023-02-01T11:29:50;13.90;;;3.40;;
62616;SDS011;62539;51.190;6.808;2023-02-01T11:32:22;11.70;;;3.75;;
62616;SDS011;62539;51.190;6.808;2023-02-01T11:34:54;11.32;;;3.08;;
62616;SDS011;62539;51.190;6.808;2023-02-01T11:37:32;12.27;;;2.70;;
62616;SDS011;62539;51.190;6.808;2023-02-01T11:40:09;6.70;;;2.60;;
62616;SDS011;62539;51.190;6.808;2023-02-01T11:42:58;10.88;;;2.80;;
62616;SDS011;62539;51.190;6.808;2023-02-01T11:47:59;12.02;;;3.08;;
62616;SDS011;62539;51.190;6.808;2023-02-01T11:53:50;6.72;;;2.78;;
62616;SDS011;62539;51.190;6.808;2023-02-01T11:59:26;9.95;;;2.53;;
62616;SDS011;62539;51.190;6.808;2023-02-01T12:06:11;8.05;;;2.80;;
62616;SDS011;62539;51.190;6.808;2023-02-01T12:08:48;6.55;;;2.45;;
62616;SDS011;62539;51.190;6.808;2023-02-01T12:11:55;6.65;;;2.40;;
62616;SDS011;62539;51.190;6.808;2023-02-01T12:14:40;8.63;;;2.40;;
62616;SDS011;62539;51.190;6.808;2023-02-01T12:17:42;12.40;;;2.70;;
62616;SDS011;62539;51.190;6.808;2023-02-01T12:20:59;8.30;;;2.78;;
62616;SDS011;62539;51.190;6.808;2023-02-01T12:29:43;10.63;;;2.67;;
62616;SDS011;62539;51.190;6.808;2023-02-01T12:38:12;9.30;;;3.80;;
62616;SDS011;62539;51.190;6.808;2023-02-01T12:47:03;7.57;;;2.70;;
62616;SDS011;62539;51.190;6.808;2023-02-01T12:50:02;8.73;;;2.97;;
62616;SDS011;62539;51.190;6.808;2023-02-01T12:52:50;14.27;;;2.78;;
62616;SDS011;62539;51.190;6.808;2023-02-01T12:55:27;8.73;;;2.55;;
62616;SDS011;62539;51.190;6.808;2023-02-01T12:58:06;10.82;;;2.80;;
62616;SDS011;62539;51.190;6.808;2023-02-01T13:01:02;7.18;;;2.42;;
62616;SDS011;62539;51.190;6.808;2023-02-01T13:06:16;6.40;;;2.40;;
62616;SDS011;62539;51.190;6.808;2023-02-01T13:11:39;7.68;;;2.67;;
62616;SDS011;62539;51.190;6.808;2023-02-01T13:16:59;11.13;;;2.67;;
62616;SDS011;62539;51.190;6.808;2023-02-01T13:22:45;8.25;;;2.30;;
62616;SDS011;62539;51.190;6.808;2023-02-01T13:25:24;5.75;;;2.38;;
62616;SDS011;62539;51.190;6.808;2023-02-01T13:28:01;4.85;;;2.40;;
62616;SDS011;62539;51.190;6.808;2023-02-01T13:30:56;10.55;;;2.65;;
62616;SDS011;62539;51.190;6.808;2023-02-01T13:36:44;7.88;;;2.80;;
62616;SDS011;62539;51.190;6.808;2023-02-01T13:39:39;6.88;;;2.72;;
62616;SDS011;62539;51.190;6.808;2023-02-01T13:42:18;5.43;;;2.92;;
62616;SDS011;62539;51.190;6.808;2023-02-01T13:44:57;5.82;;;2.72;;
62616;SDS011;62539;51.190;6.808;2023-02-01T13:47:50;6.40;;;2.97;;
62616;SDS011;62539;51.190;6.808;2023-02-01T13:50:20;7.18;;;2.55;;
62616;SDS011;62539;51.190;6.808;2023-02-01T13:53:04;7.05;;;2.80;;
62616;SDS011;62539;51.190;6.808;2023-02-01T13:55:46;5.90;;;3.03;;
62616;SDS011;62539;51.190;6.808;2023-02-01T13:58:22;7.45;;;2.70;;
62616;SDS011;62539;51.190;6.808;2023-02-01T14:03:54;6.47;;;2.63;;
62616;SDS011;62539;51.190;6.808;2023-02-01T14:11:48;5.82;;;2.28;;
62616;SDS011;62539;51.190;6.808;2023-02-01T14:16:42;5.47;;;2.75;;
62616;SDS011;62539;51.190;6.808;2023-02-01T14:19:20;6.45;;;2.72;;
62616;SDS011;62539;51.190;6.808;2023-02-01T14:21:52;7.57;;;2.78;;
62616;SDS011;62539;51.190;6.808;2023-02-01T14:24:24;4.38;;;2.15;;
62616;SDS011;62539;51.190;6.808;2023-02-01T14:26:59;5.53;;;2.40;;
62616;SDS011;62539;51.190;6.808;2023-02-01T14:29:39;4.30;;;2.17;;
62616;SDS011;62539;51.190;6.808;2023-02-01T14:32:30;8.55;;;2.63;;
62616;SDS011;62539;51.190;6.808;2023-02-01T14:35:01;7.07;;;2.75;;
62616;SDS011;62539;51.190;6.808;2023-02-01T14:37:33;6.10;;;2.70;;
62616;SDS011;62539;51.190;6.808;2023-02-01T14:53:04;4.80;;;2.50;;
62616;SDS011;62539;51.190;6.808;2023-02-01T15:01:28;4.53;;;2.47;;
62616;SDS011;62539;51.190;6.808;2023-02-01T15:06:46;4.80;;;2.58;;
62616;SDS011;62539;51.190;6.808;2023-02-01T15:12:23;7.35;;;2.60;;
62616;SDS011;62539;51.190;6.808;2023-02-01T15:15:29;4.18;;;1.92;;
62616;SDS011;62539;51.190;6.808;2023-02-01T15:17:58;4.30;;;2.50;;
62616;SDS011;62539;51.190;6.808;2023-02-01T15:20:26;4.75;;;2.05;;
62616;SDS011;62539;51.190;6.808;2023-02-01T15:23:01;6.70;;;2.40;;
62616;SDS011;62539;51.190;6.808;2023-02-01T15:25:31;8.43;;;2.50;;
62616;SDS011;62539;51.190;6.808;2023-02-01T15:28:02;5.82;;;2.53;;
62616;SDS011;62539;51.190;6.808;2023-02-01T15:30:29;4.90;;;2.28;;
62616;SDS011;62539;51.190;6.808;2023-02-01T15:35:42;4.72;;;2.30;;
62616;SDS011;62539;51.190;6.808;2023-02-01T15:46:32;3.50;;;2.15;;
62616;SDS011;62539;51.190;6.808;2023-02-01T15:49:03;6.05;;;2.28;;
62616;SDS011;62539;51.190;6.808;2023-02-01T15:51:39;6.10;;;2.33;;
62616;SDS011;62539;51.190;6.808;2023-02-01T15:54:18;3.38;;;2.00;;
62616;SDS011;62539;51.190;6.808;2023-02-01T15:56:52;4.45;;;2.30;;
62616;SDS011;62539;51.190;6.808;2023-02-01T15:59:24;3.72;;;2.20;;
62616;SDS011;62539;51.190;6.808;2023-02-01T16:01:58;7.30;;;2.03;;
62616;SDS011;62539;51.190;6.808;2023-02-01T16:04:24;6.50;;;1.92;;
62616;SDS011;62539;51.190;6.808;2023-02-01T16:06:57;2.90;;;2.03;;
62616;SDS011;62539;51.190;6.808;2023-02-01T16:15:03;3.63;;;2.20;;
62616;SDS011;62539;51.190;6.808;2023-02-01T16:17:30;4.20;;;1.98;;
62616;SDS011;62539;51.190;6.808;2023-02-01T16:19:56;4.15;;;2.13;;
62616;SDS011;62539;51.190;6.808;2023-02-01T16:22:23;3.40;;;2.00;;
62616;SDS011;62539;51.190;6.808;2023-02-01T16:24:49;4.18;;;2.05;;
62616;SDS011;62539;51.190;6.808;2023-02-01T16:27:14;7.38;;;1.85;;
62616;SDS011;62539;51.190;6.808;2023-02-01T16:29:39;4.63;;;2.00;;
62616;SDS011;62539;51.190;6.808;2023-02-01T16:32:05;5.15;;;2.20;;
62616;SDS011;62539;51.190;6.808;2023-02-01T16:34:31;2.90;;;1.65;;
62616;SDS011;62539;51.190;6.808;2023-02-01T16:36:57;5.40;;;2.17;;
62616;SDS011;62539;51.190;6.808;2023-02-01T16:39:23;4.63;;;2.03;;
62616;SDS011;62539;51.190;6.808;2023-02-01T16:41:49;2.80;;;1.67;;
62616;SDS011;62539;51.190;6.808;2023-02-01T16:44:15;3.63;;;1.77;;
62616;SDS011;62539;51.190;6.808;2023-02-01T16:46:44;4.32;;;1.95;;
62616;SDS011;62539;51.190;6.808;2023-02-01T16:49:19;4.78;;;1.92;;
62616;SDS011;62539;51.190;6.808;2023-02-01T16:51:49;4.55;;;2.20;;
62616;SDS011;62539;51.190;6.808;2023-02-01T16:54:19;3.95;;;2.17;;
62616;SDS011;62539;51.190;6.808;2023-02-01T16:56:45;6.35;;;1.90;;
62616;SDS011;62539;51.190;6.808;2023-02-01T16:59:11;9.30;;;2.47;;
62616;SDS011;62539;51.190;6.808;2023-02-01T17:01:37;3.65;;;2.08;;
62616;SDS011;62539;51.190;6.808;2023-02-01T17:04:03;8.27;;;1.92;;
62616;SDS011;62539;51.190;6.808;2023-02-01T17:06:29;3.38;;;1.83;;
62616;SDS011;62539;51.190;6.808;2023-02-01T17:08:57;6.38;;;2.05;;
62616;SDS011;62539;51.190;6.808;2023-02-01T17:11:25;4.75;;;2.28;;
62616;SDS011;62539;51.190;6.808;2023-02-01T17:13:52;3.38;;;1.73;;
62616;SDS011;62539;51.190;6.808;2023-02-01T17:18:43;10.15;;;2.08;;
62616;SDS011;62539;51.190;6.808;2023-02-01T17:21:18;7.85;;;2.33;;
62616;SDS011;62539;51.190;6.808;2023-02-01T17:23:44;9.43;;;1.88;;
62616;SDS011;62539;51.190;6.808;2023-02-01T17:26:10;6.63;;;2.42;;
62616;SDS011;62539;51.190;6.808;2023-02-01T17:28:36;4.78;;;2.35;;
62616;SDS011;62539;51.190;6.808;2023-02-01T17:31:01;7.38;;;2.25;;
62616;SDS011;62539;51.190;6.808;2023-02-01T17:33:29;6.10;;;2.33;;
62616;SDS011;62539;51.190;6.808;2023-02-01T17:35:59;4.78;;;1.95;;
62616;SDS011;62539;51.190;6.808;2023-02-01T17:38:25;6.82;;;2.25;;
62616;SDS011;62539;51.190;6.808;2023-02-01T17:40:51;3.58;;;2.00;;
62616;SDS011;62539;51.190;6.808;2023-02-01T17:43:21;10.15;;;2.30;;
62616;SDS011;62539;51.190;6.808;2023-02-01T17:45:53;11.52;;;2.10;;
62616;SDS011;62539;51.190;6.808;2023-02-01T17:48:28;10.20;;;2.25;;
62616;SDS011;62539;51.190;6.808;2023-02-01T17:50:56;4.72;;;2.28;;
62616;SDS011;62539;51.190;6.808;2023-02-01T17:53:25;12.75;;;2.10;;
62616;SDS011;62539;51.190;6.808;2023-02-01T17:55:52;4.15;;;1.83;;